Terminal Aerodrome Forecast
Issued by NWS

Home | Current Version | Previous Version | Text Only | Print | Product List | Glossary On
Versions: 1 2 3 4 5 6 7 8 9 10 11 12 13 14 15 16 17 18 19 20
000
FTUS43 KILX 271700 RRA
TAFBMI
TAF
KBMI 271741Z 2718/2818 04006KT P6SM VCSH SCT025 BKN150
     FM272000 05008KT P6SM VCTS SCT035CB BKN150
     FM280100 04006KT P6SM BKN250=

USA.gov is the U.S. government's official web portal to all federal, state and local government web resources and services.